Flight Track Log - Related Links

Times and Time Zones

All times are in EDT time to prevent confusion due to time zone crossing. See the FSR411 flight status page for this flight to view local times or setup timezone preferences in your user account.

Time Position Orientation Groundspeed Altitude Reporting Facility
EDT Latitude Longitude Course Direction KTS MPH feet Rate Location/Type
02:07AM 38.5667 -90.0667 25° Northeast 221 254 4,400  Level Gateway (St. Louis) TRACON
02:08AM 38.6333 -90.0500 11° North 246 283 8,200 3,650 Climbing Gateway (St. Louis) TRACON
02:09AM 38.7000 -90.0000 30° Northeast 300 345 11,700 2,776 Climbing Gateway (St. Louis) TRACON
02:10AM 38.7836 -89.8850 47° Northeast 354 407 14,400 1,478 Climbing Kansas City Center
02:11AM 38.8622 -89.7861 44° Northeast 391 450 15,000 300 Climbing Kansas City Center
02:12AM 38.9852 -90.2089 25° Northeast  Level FlightAware Approximate
02:12AM 38.9417 -89.6881 44° Northeast 399 459 15,000  Level Kansas City Center
02:13AM 39.0222 -89.5869 44° Northeast 405 466 15,000  Level Kansas City Center
02:14AM 39.1011 -89.4861 45° Northeast 402 463 15,000  Level Kansas City Center
02:15AM 39.1814 -89.3847 44° Northeast 402 463 15,000 -250 Level Kansas City Center
02:16AM 39.2589 -89.2847 45° Northeast 398 458 14,500 -1,537 Descending Kansas City Center
02:17AM 39.3308 -89.1936 44° Northeast 374 430 11,900 -2,281 Descending Kansas City Center
02:18AM 39.3967 -89.1106 44° Northeast 342 394 9,900 -1,450 Descending Kansas City Center
02:19AM 39.4511 -89.0400 45° Northeast 304 350 9,000 -450 Descending Kansas City Center
02:20AM 39.5078 -88.9675 45° Northeast 289 333 9,000  Level Kansas City Center
02:21AM 39.5650 -88.8953 44° Northeast 288 331 9,000  Level Kansas City Center
02:22AM 39.6211 -88.8206 46° Northeast 290 334 9,000  Level Kansas City Center
02:23AM 39.6789 -88.7483 44° Northeast 290 334 9,000 -250 Level Kansas City Center
02:24AM 39.7356 -88.6733 45° Northeast 290 334 8,500 -1,240 Descending Kansas City Center
02:25AM 39.7908 -88.6028 44° Northeast 284 327 6,500 -1,884 Descending Kansas City Center
02:26AM 39.8439 -88.5328 45° Northeast 275 316 4,700 -1,800 Descending Kansas City Center

Login

Don't have an account? Register now (free) for customized features, flight alerts, and more!